Tappen, North Dakota
Current Conditions -  °F | °C
As of 2:09 PM on Saturday 20 Dec 2014 (Local Time) from KJMS Reporting Station
Haze Haze  
Wind Chill: 18°   Ceiling: 200
Heat Index: 29°   Visibility: 3mi
Dew Point: 25°   Wind: 15mph
Humidity: 85%   Direction: 180°S
Pressure: 29.88"   Gusts: NA
Location:  46.87°N, 99.64°W
Report Text: KJMS 202009Z AUTO 18013KT 3SM BR OVC002 M02/M04 A2988 RMK AO2 T10171039
Loading
Personal Weather Stations






























Interactive Weather Map New forecast layout! Learn more

10-Day Weather Forecast

Advertisements
Track Severe Weather on mobile